Time;durP1;ratioP1;P1;durP2;ratioP2;P2;SDS_P1;SDS_P2;PMS_P1;PMS_P2;Temp;Humidity;BMP_temperature;BMP_pressure;BME280_temperature;BME280_humidity;BME280_pressure;Samples;Min_cycle;Max_cycle;Signal;HPM_P1;HPM_P2
2021/07/07 00:00:58;;;;;;;3.75;2.03;;;;;;;27.03;48.10;100410.09;5067948;28;20509;-69
2021/07/07 00:03:43;;;;;;;4.80;2.35;;;;;;;26.88;48.16;100400.50;5066092;28;20643;-68
2021/07/07 00:06:28;;;;;;;8.77;2.78;;;;;;;26.81;48.34;100396.63;5063423;28;20044;-68
2021/07/07 00:09:13;;;;;;;6.28;2.50;;;;;;;26.85;48.60;100410.50;5066281;28;20047;-69
2021/07/07 00:11:58;;;;;;;7.38;2.42;;;;;;;26.87;48.33;100405.28;5064122;28;20044;-69
2021/07/07 00:14:43;;;;;;;10.77;1.88;;;;;;;26.92;48.74;100392.84;5064552;28;20044;-68
2021/07/07 00:17:28;;;;;;;5.38;2.25;;;;;;;26.83;49.26;100398.97;5067100;28;20067;-69
2021/07/07 00:20:16;;;;;;;9.10;2.55;;;;;;;26.80;49.58;100408.22;5065970;28;20043;-69
2021/07/07 00:23:02;;;;;;;6.55;2.30;;;;;;;26.82;49.39;100408.56;5065437;28;20501;-69
2021/07/07 00:25:47;;;;;;;7.30;2.30;;;;;;;26.81;49.64;100399.44;5068521;28;20043;-68
2021/07/07 00:28:31;;;;;;;3.47;2.22;;;;;;;26.78;49.85;100400.28;5064174;28;20512;-70
2021/07/07 00:31:16;;;;;;;8.02;2.20;;;;;;;26.73;49.78;100400.00;5061367;28;20044;-69
2021/07/07 00:34:01;;;;;;;5.00;3.10;;;;;;;26.77;49.46;100395.13;5067265;28;20047;-69
2021/07/07 00:36:47;;;;;;;6.63;2.30;;;;;;;26.75;49.85;100403.94;5067933;28;20047;-70
2021/07/07 00:39:32;;;;;;;4.55;2.58;;;;;;;26.79;49.79;100398.28;5064113;28;20048;-69
2021/07/07 00:42:17;;;;;;;8.55;2.83;;;;;;;26.72;49.89;100399.22;5061482;28;20410;-69
2021/07/07 00:45:02;;;;;;;7.45;3.53;;;;;;;26.60;50.09;100397.13;5065336;28;20052;-68
2021/07/07 00:47:47;;;;;;;4.70;3.15;;;;;;;26.64;50.38;100391.44;5064709;28;20044;-70
2021/07/07 00:50:32;;;;;;;3.90;2.53;;;;;;;26.59;50.51;100392.75;5064949;28;20410;-69
2021/07/07 00:53:18;;;;;;;6.53;2.50;;;;;;;26.57;50.47;100399.97;5063285;28;20048;-71
2021/07/07 00:56:03;;;;;;;7.20;3.10;;;;;;;26.52;50.46;100406.84;5062811;28;20060;-68
2021/07/07 00:58:53;;;;;;;7.47;3.25;;;;;;;26.55;50.53;100416.38;5062622;28;20040;-69
2021/07/07 01:01:40;;;;;;;8.95;3.22;;;;;;;26.54;50.94;100414.78;5063981;28;20402;-69
2021/07/07 01:04:25;;;;;;;5.80;3.53;;;;;;;26.49;50.99;100416.06;5057585;28;20067;-69
2021/07/07 01:07:10;;;;;;;4.88;3.30;;;;;;;26.43;51.19;100414.22;5063116;28;20059;-70
2021/07/07 01:09:55;;;;;;;4.22;3.20;;;;;;;26.44;51.29;100413.78;5064338;28;20048;-68
2021/07/07 01:12:41;;;;;;;5.25;3.40;;;;;;;26.39;51.25;100409.50;5064926;28;20051;-69
2021/07/07 01:15:25;;;;;;;3.78;2.95;;;;;;;26.29;51.70;100399.38;5061847;28;20047;-68
2021/07/07 01:18:11;;;;;;;3.63;2.63;;;;;;;26.26;51.48;100405.78;5063799;28;20055;-69
2021/07/07 01:20:56;;;;;;;8.32;2.97;;;;;;;26.25;51.63;100411.81;5063976;28;20048;-69
2021/07/07 01:23:41;;;;;;;5.55;3.03;;;;;;;26.25;51.62;100411.81;5067632;28;20039;-68
2021/07/07 01:26:26;;;;;;;7.40;2.65;;;;;;;26.25;51.64;100409.03;5065653;28;20056;-70
2021/07/07 01:29:12;;;;;;;4.57;2.88;;;;;;;26.21;51.77;100400.69;5064735;28;20056;-70
2021/07/07 01:31:57;;;;;;;3.83;3.00;;;;;;;26.22;51.77;100409.88;5061549;28;20048;-68
2021/07/07 01:34:42;;;;;;;5.05;2.50;;;;;;;26.22;51.35;100396.72;5056945;28;20107;-68
2021/07/07 01:37:27;;;;;;;4.68;3.00;;;;;;;26.14;52.12;100406.41;5061937;28;20044;-69
2021/07/07 01:40:14;;;;;;;6.00;4.03;;;;;;;26.12;52.12;100402.47;5061276;28;20524;-67
2021/07/07 01:43:00;;;;;;;7.43;3.03;;;;;;;26.13;52.18;100398.47;5075443;28;20043;-68
2021/07/07 01:45:45;;;;;;;7.68;3.08;;;;;;;26.11;52.06;100390.53;5066294;28;20048;-68
2021/07/07 01:48:29;;;;;;;5.85;3.10;;;;;;;26.07;52.08;100392.63;5057319;28;20044;-69
2021/07/07 01:51:14;;;;;;;7.22;2.97;;;;;;;26.07;52.25;100392.63;5075181;28;20043;-69
2021/07/07 01:53:59;;;;;;;8.52;3.15;;;;;;;26.06;52.36;100391.03;5069450;28;20524;-69
2021/07/07 01:56:44;;;;;;;16.67;3.40;;;;;;;26.02;52.52;100392.31;5061077;28;20410;-68
2021/07/07 01:59:29;;;;;;;9.77;4.28;;;;;;;25.92;52.99;100385.75;5058134;28;20053;-69
2021/07/07 02:02:16;;;;;;;14.23;3.55;;;;;;;25.94;52.79;100383.34;5071033;28;20059;-69
2021/07/07 02:05:00;;;;;;;11.55;3.55;;;;;;;25.91;52.79;100384.16;5072157;28;20059;-69
2021/07/07 02:07:45;;;;;;;9.50;3.03;;;;;;;25.83;53.11;100377.97;5072609;28;20528;-69
2021/07/07 02:10:30;;;;;;;6.50;3.60;;;;;;;25.81;53.39;100380.38;5072220;28;20072;-68
2021/07/07 02:13:15;;;;;;;5.57;3.28;;;;;;;25.77;53.59;100373.31;5058234;28;20052;-70
2021/07/07 02:16:00;;;;;;;10.30;3.53;;;;;;;25.75;53.68;100375.75;5060330;28;20047;-69
2021/07/07 02:18:45;;;;;;;9.50;3.60;;;;;;;25.82;53.58;100376.38;5072512;28;20051;-69
2021/07/07 02:21:30;;;;;;;11.10;3.42;;;;;;;25.81;53.45;100380.38;5068636;28;20048;-68
2021/07/07 02:24:15;;;;;;;11.32;3.50;;;;;;;25.82;53.75;100381.16;5055859;28;20060;-70
2021/07/07 02:27:00;;;;;;;16.27;4.47;;;;;;;25.72;54.01;100387.72;5058533;28;20052;-70
2021/07/07 02:29:44;;;;;;;8.55;3.17;;;;;;;25.59;54.57;100382.00;5057307;28;20040;-69
2021/07/07 02:32:30;;;;;;;7.40;3.28;;;;;;;25.61;54.46;100376.78;5066899;28;20043;-69
2021/07/07 02:35:17;;;;;;;11.52;4.25;;;;;;;25.62;54.36;100380.34;5078554;28;20055;-69
2021/07/07 02:38:04;;;;;;;7.38;3.80;;;;;;;25.61;53.89;100378.78;5076685;28;20047;-67
2021/07/07 02:40:51;;;;;;;7.40;3.45;;;;;;;25.57;54.25;100378.06;5061568;28;20119;-68
2021/07/07 02:43:36;;;;;;;9.27;2.70;;;;;;;25.58;54.31;100383.22;5059027;28;20529;-68
2021/07/07 02:46:21;;;;;;;3.50;3.03;;;;;;;25.61;54.51;100376.78;5061926;28;20052;-67
2021/07/07 02:49:06;;;;;;;6.60;3.60;;;;;;;25.59;54.41;100376.44;5074441;28;20051;-68
2021/07/07 02:51:51;;;;;;;4.97;3.60;;;;;;;25.60;54.32;100375.19;5065787;28;20048;-68
2021/07/07 02:54:36;;;;;;;7.38;3.28;;;;;;;25.61;54.25;100376.00;5077734;28;20052;-67
2021/07/07 02:57:20;;;;;;;9.05;4.05;;;;;;;25.51;54.75;100375.72;5074808;28;20047;-68
2021/07/07 03:00:06;;;;;;;4.72;2.83;;;;;;;25.45;54.89;100374.66;5066973;28;20053;-67
2021/07/07 03:02:51;;;;;;;6.95;3.17;;;;;;;25.47;54.78;100375.00;5069458;28;20059;-67
2021/07/07 03:05:50;;;;;;;5.97;3.53;;;;;;;25.46;54.71;100381.78;5058883;28;20401;-68
2021/07/07 03:08:36;;;;;;;12.32;3.60;;;;;;;25.45;54.82;100382.22;5076061;28;20413;-68
2021/07/07 03:11:21;;;;;;;8.60;3.28;;;;;;;25.38;54.94;100374.00;5065486;28;20060;-68
2021/07/07 03:14:06;;;;;;;7.57;3.90;;;;;;;25.34;54.89;100376.06;5060906;28;20063;-67
2021/07/07 03:16:51;;;;;;;7.07;3.88;;;;;;;25.25;55.29;100378.56;5070913;28;20063;-66
2021/07/07 03:19:36;;;;;;;7.57;3.70;;;;;;;25.18;55.50;100390.63;5076283;28;20051;-67
2021/07/07 03:22:21;;;;;;;14.07;4.93;;;;;;;25.16;56.15;100389.47;5071115;28;20059;-66
2021/07/07 03:25:07;;;;;;;10.45;3.85;;;;;;;25.15;55.83;100388.69;5072472;28;20043;-68
2021/07/07 03:27:52;;;;;;;12.55;4.57;;;;;;;25.16;55.92;100392.25;5069351;28;20047;-68
2021/07/07 03:30:37;;;;;;;7.72;3.47;;;;;;;25.14;55.89;100387.88;5062519;28;20520;-67
2021/07/07 03:33:22;;;;;;;7.80;3.78;;;;;;;25.20;55.62;100390.19;5065243;28;20072;-67
2021/07/07 03:36:07;;;;;;;5.05;3.60;;;;;;;25.15;55.66;100391.47;5076861;28;20059;-68
2021/07/07 03:38:52;;;;;;;8.52;3.35;;;;;;;25.20;55.91;100392.97;5074681;28;20059;-67
2021/07/07 03:41:39;;;;;;;10.50;3.90;;;;;;;25.15;55.97;100399.81;5068828;28;20048;-68
2021/07/07 03:44:33;;;;;;;11.98;3.97;;;;;;;25.11;56.17;100399.09;5057593;28;20112;-67
2021/07/07 03:47:18;;;;;;;7.70;4.05;;;;;;;25.09;56.21;100396.72;5059185;28;20052;-67
2021/07/07 03:50:05;;;;;;;10.40;4.05;;;;;;;25.16;55.91;100395.81;5058748;28;20445;-68
2021/07/07 03:52:51;;;;;;;8.80;3.60;;;;;;;25.14;55.85;100398.25;5066561;28;20056;-68
2021/07/07 03:55:36;;;;;;;9.70;3.60;;;;;;;25.03;56.45;100394.84;5065123;28;20036;-67
2021/07/07 03:58:21;;;;;;;10.98;3.33;;;;;;;25.00;56.79;100409.59;5073825;28;20047;-68
2021/07/07 04:01:06;;;;;;;15.50;3.75;;;;;;;25.02;56.58;100402.41;5063782;28;20060;-68
2021/07/07 04:03:51;;;;;;;10.05;3.70;;;;;;;25.02;56.69;100399.63;5061724;28;20060;-68
2021/07/07 04:06:37;;;;;;;8.30;3.25;;;;;;;25.03;56.50;100408.75;5061809;28;20052;-68
2021/07/07 04:09:28;;;;;;;8.20;3.80;;;;;;;25.04;56.18;100411.09;5066834;28;20052;-66
2021/07/07 04:12:13;;;;;;;7.03;4.43;;;;;;;25.01;56.32;100411.16;5060274;28;20069;-68
2021/07/07 04:14:59;;;;;;;8.63;3.45;;;;;;;24.92;56.36;100414.50;5060347;28;20040;-66
2021/07/07 04:17:45;;;;;;;11.70;4.45;;;;;;;25.01;56.16;100419.53;5058638;28;20051;-68
2021/07/07 04:20:31;;;;;;;9.15;3.70;;;;;;;24.93;56.75;100413.28;5056501;28;20043;-68
2021/07/07 04:23:16;;;;;;;10.52;4.78;;;;;;;24.94;56.80;100419.66;5060489;28;20051;-68
2021/07/07 04:26:01;;;;;;;7.78;3.42;;;;;;;24.94;56.72;100419.66;5061511;28;20043;-68
2021/07/07 04:28:46;;;;;;;6.80;3.60;;;;;;;24.95;56.95;100423.97;5055690;28;20067;-68
2021/07/07 04:31:35;;;;;;;8.25;3.75;;;;;;;25.00;56.83;100431.84;5079414;28;20059;-66
2021/07/07 04:34:20;;;;;;;11.35;4.25;;;;;;;24.99;56.84;100430.28;5058489;28;20077;-67
2021/07/07 04:37:05;;;;;;;10.18;4.15;;;;;;;25.01;56.80;100439.00;5055564;28;20411;-66
2021/07/07 04:39:52;;;;;;;8.40;3.75;;;;;;;25.05;57.01;100437.72;5053244;28;20095;-68
2021/07/07 04:42:37;;;;;;;10.18;3.67;;;;;;;25.06;57.10;100435.75;5073256;28;20047;-68
2021/07/07 04:45:22;;;;;;;13.40;4.22;;;;;;;25.02;56.97;100435.00;5074726;28;20056;-66
2021/07/07 04:48:07;;;;;;;7.55;4.07;;;;;;;25.13;57.24;100446.78;5060223;28;20126;-68
2021/07/07 04:50:52;;;;;;;7.80;4.22;;;;;;;25.15;57.38;100444.34;5071000;28;20512;-68
2021/07/07 04:53:38;;;;;;;8.82;4.55;;;;;;;25.12;57.76;100447.97;5070612;28;20052;-67
2021/07/07 04:56:23;;;;;;;7.45;3.78;;;;;;;25.08;57.95;100438.91;5066701;28;20060;-67
2021/07/07 04:59:11;;;;;;;9.05;4.18;;;;;;;25.15;58.23;100438.78;5060500;28;20040;-66
2021/07/07 05:01:56;;;;;;;8.23;4.72;;;;;;;25.19;58.45;100447.09;5063557;28;20044;-64
2021/07/07 05:04:41;;;;;;;6.22;4.03;;;;;;;25.17;58.75;100446.72;5067687;28;20059;-64
2021/07/07 05:07:26;;;;;;;15.40;4.63;;;;;;;25.18;58.79;100437.94;5075023;28;20063;-64
2021/07/07 05:10:12;;;;;;;31.77;6.15;;;;;;;25.24;58.85;100449.41;5065234;28;20056;-65
2021/07/07 05:12:58;;;;;;;13.95;5.32;;;;;;;25.27;58.58;100446.56;5064700;28;20067;-66
2021/07/07 05:15:46;;;;;;;10.27;5.90;;;;;;;25.30;58.51;100451.25;5055513;28;20048;-65
2021/07/07 05:18:31;;;;;;;16.38;4.53;;;;;;;25.28;58.44;100453.69;5056552;28;20040;-66
2021/07/07 05:21:16;;;;;;;12.30;5.28;;;;;;;25.28;58.70;100453.69;5057884;28;20055;-65
2021/07/07 05:24:01;;;;;;;8.60;5.50;;;;;;;25.32;58.00;100453.63;5068604;28;20040;-66
2021/07/07 05:26:46;;;;;;;9.95;4.75;;;;;;;25.34;58.83;100460.38;5054885;28;20040;-64
2021/07/07 05:29:31;;;;;;;8.13;5.07;;;;;;;25.33;58.01;100450.44;5069395;28;20047;-64
2021/07/07 05:32:22;;;;;;;9.23;5.80;;;;;;;25.36;57.78;100466.28;5071367;28;20512;-64
2021/07/07 05:35:08;;;;;;;8.07;4.90;;;;;;;25.39;57.55;100457.09;5056501;28;20525;-65
2021/07/07 05:37:53;;;;;;;6.90;4.72;;;;;;;25.41;57.11;100460.25;5063996;28;20051;-64
2021/07/07 05:40:38;;;;;;;8.65;5.18;;;;;;;25.42;57.28;100470.16;5067552;28;20513;-64
2021/07/07 05:43:23;;;;;;;13.80;6.05;;;;;;;25.46;56.68;100470.09;5056280;28;20055;-64
2021/07/07 05:46:08;;;;;;;16.60;6.07;;;;;;;25.47;56.75;100466.91;5072106;28;20067;-64
2021/07/07 05:48:53;;;;;;;8.07;5.88;;;;;;;25.50;56.50;100466.06;5059683;28;20063;-64
2021/07/07 05:51:38;;;;;;;11.13;5.63;;;;;;;25.53;56.71;100459.66;5069444;28;20048;-64
2021/07/07 05:54:23;;;;;;;8.23;5.50;;;;;;;25.58;56.38;100465.97;5057099;28;20052;-64
2021/07/07 05:57:08;;;;;;;13.00;5.00;;;;;;;25.63;56.50;100473.84;5054956;28;20056;-65
2021/07/07 05:59:54;;;;;;;9.52;5.10;;;;;;;25.70;56.40;100473.75;5059119;28;20056;-64
2021/07/07 06:02:40;;;;;;;11.68;6.15;;;;;;;25.76;56.29;100477.59;5076325;28;20047;-65
2021/07/07 06:05:27;;;;;;;5.82;4.38;;;;;;;25.81;56.16;100479.88;5075248;28;20048;-65
2021/07/07 06:08:11;;;;;;;19.88;5.95;;;;;;;25.83;55.80;100483.84;5077255;28;20055;-66
2021/07/07 06:10:56;;;;;;;9.07;5.32;;;;;;;25.89;56.04;100487.72;5071474;28;20047;-66
2021/07/07 06:13:41;;;;;;;33.13;6.80;;;;;;;25.92;55.94;100481.28;5060806;28;20048;-66
2021/07/07 06:16:26;;;;;;;14.65;5.45;;;;;;;25.99;55.63;100491.53;5063948;28;20051;-66
2021/07/07 06:19:11;;;;;;;10.15;4.60;;;;;;;26.04;55.50;100482.66;5081153;28;20048;-64
2021/07/07 06:21:58;;;;;;;11.65;5.55;;;;;;;26.08;54.66;100479.81;5074715;28;20052;-64
2021/07/07 06:24:43;;;;;;;7.28;5.05;;;;;;;26.12;54.93;100486.09;5079398;28;20048;-64
2021/07/07 06:27:28;;;;;;;8.57;4.97;;;;;;;26.18;54.73;100489.97;5079050;28;20052;-66
2021/07/07 06:30:18;;;;;;;8.82;5.32;;;;;;;26.25;54.54;100496.25;5080881;28;20044;-66
2021/07/07 06:33:03;;;;;;;20.85;5.70;;;;;;;26.30;54.10;100490.16;5074452;28;20064;-66
2021/07/07 06:35:48;;;;;;;12.20;5.53;;;;;;;26.42;53.65;100499.88;5080990;28;20560;-66
2021/07/07 06:38:33;;;;;;;9.80;5.47;;;;;;;26.48;53.36;100500.97;5075749;28;20761;-66
2021/07/07 06:41:18;;;;;;;10.32;5.20;;;;;;;26.51;53.12;100511.28;5078963;28;20047;-66
2021/07/07 06:44:04;;;;;;;23.17;6.93;;;;;;;26.59;53.65;100511.91;5078867;28;20058;-66
2021/07/07 06:46:49;;;;;;;27.95;7.00;;;;;;;26.62;53.55;100511.03;5067637;28;20048;-66
2021/07/07 06:49:34;;;;;;;8.93;4.80;;;;;;;26.69;52.72;100505.31;5078669;28;20056;-66
2021/07/07 06:52:19;;;;;;;22.13;6.00;;;;;;;26.74;53.31;100507.59;5076125;28;20047;-66
2021/07/07 06:55:06;;;;;;;15.15;5.47;;;;;;;26.80;52.72;100509.47;5073971;28;20055;-66
2021/07/07 06:57:51;;;;;;;11.00;5.68;;;;;;;26.87;52.31;100521.75;5077107;28;20051;-66
2021/07/07 07:00:36;;;;;;;10.43;5.57;;;;;;;26.95;51.91;100517.56;5080601;28;20067;-66
2021/07/07 07:03:21;;;;;;;8.00;4.50;;;;;;;26.99;51.46;100509.91;5074016;28;20044;-66
2021/07/07 07:06:07;;;;;;;5.72;4.18;;;;;;;27.04;51.14;100518.53;5080506;28;20047;-66
2021/07/07 07:08:52;;;;;;;11.43;4.47;;;;;;;27.09;51.61;100522.84;5073379;28;20044;-63
2021/07/07 07:11:37;;;;;;;7.45;3.70;;;;;;;27.17;50.88;100519.44;5072086;28;20047;-64
2021/07/07 07:14:22;;;;;;;10.75;4.35;;;;;;;27.28;49.79;100518.44;5068168;28;20047;-66
2021/07/07 07:17:06;;;;;;;9.57;3.45;;;;;;;27.31;49.36;100511.97;5063067;28;20046;-65
2021/07/07 07:19:53;;;;;;;5.72;3.78;;;;;;;27.38;49.67;100512.56;5059622;28;20425;-64
2021/07/07 07:22:37;;;;;;;7.45;3.33;;;;;;;27.46;48.96;100514.00;5066878;28;20047;-64
2021/07/07 07:25:23;;;;;;;5.78;2.80;;;;;;;27.54;48.04;100509.81;5070960;28;20040;-65
2021/07/07 07:28:07;;;;;;;4.80;2.33;;;;;;;27.57;47.53;100511.78;5069065;28;20069;-66
2021/07/07 07:30:54;;;;;;;4.20;2.38;;;;;;;27.63;47.33;100517.63;5062746;28;20044;-64
2021/07/07 07:33:40;;;;;;;215.52;13.38;;;;;;;27.68;46.81;100519.09;5055285;28;20056;-65
2021/07/07 07:36:25;;;;;;;8.05;1.75;;;;;;;27.76;43.49;100514.91;5065575;28;20066;-66
2021/07/07 07:39:19;;;;;;;5.18;1.17;;;;;;;27.88;40.82;100520.59;5072860;28;20055;-66
2021/07/07 07:42:04;;;;;;;3.50;1.20;;;;;;;27.94;38.86;100513.22;5054738;28;20614;-65
2021/07/07 07:44:49;;;;;;;1.83;0.90;;;;;;;28.04;36.85;100514.94;5057321;28;20399;-64
2021/07/07 07:47:34;;;;;;;1.98;1.02;;;;;;;28.16;35.66;100515.47;5074430;28;20052;-65
2021/07/07 07:50:19;;;;;;;2.78;1.10;;;;;;;28.17;36.93;100517.84;5073588;28;20051;-65
2021/07/07 07:53:04;;;;;;;4.03;1.65;;;;;;;28.16;38.34;100515.47;5078018;28;20051;-65
2021/07/07 07:55:49;;;;;;;3.50;1.30;;;;;;;28.30;37.94;100526.28;5076119;28;20052;-65
2021/07/07 07:58:34;;;;;;;5.50;1.00;;;;;;;28.34;38.02;100521.41;5073888;28;20063;-65
2021/07/07 08:01:19;;;;;;;3.58;0.73;;;;;;;28.46;36.72;100529.03;5078534;28;20077;-65
2021/07/07 08:04:04;;;;;;;1.50;0.60;;;;;;;28.53;36.45;100528.06;5076260;28;20055;-66
2021/07/07 08:06:49;;;;;;;4.75;0.98;;;;;;;28.58;35.16;100535.91;5073839;28;20048;-66
2021/07/07 08:09:34;;;;;;;1.83;0.90;;;;;;;28.55;35.60;100529.19;5072360;28;20048;-65
2021/07/07 08:12:19;;;;;;;1.85;1.00;;;;;;;28.55;36.10;100536.81;5076661;28;20051;-66
2021/07/07 08:15:06;;;;;;;3.35;1.17;;;;;;;28.61;36.69;100527.41;5074585;28;20048;-66
2021/07/07 08:17:52;;;;;;;6.25;1.52;;;;;;;28.68;36.93;100530.00;5072395;28;20079;-66
2021/07/07 08:20:38;;;;;;;1.55;0.77;;;;;;;28.75;36.80;100531.88;5076625;28;20051;-66
2021/07/07 08:23:23;;;;;;;1.95;1.00;;;;;;;28.87;36.58;100540.28;5074556;28;20513;-66
2021/07/07 08:26:08;;;;;;;7.85;1.02;;;;;;;28.99;36.77;100540.75;5072611;28;20040;-65
2021/07/07 08:28:53;;;;;;;2.08;0.82;;;;;;;29.06;36.16;100540.53;5072940;28;20056;-66
2021/07/07 08:31:38;;;;;;;5.65;1.60;;;;;;;29.19;36.01;100542.13;5073321;28;20528;-66
2021/07/07 08:34:23;;;;;;;3.90;1.15;;;;;;;29.18;36.89;100534.16;5077293;28;20051;-66
2021/07/07 08:37:12;;;;;;;5.40;1.20;;;;;;;29.31;36.86;100540.56;5075403;28;20524;-66
2021/07/07 08:39:57;;;;;;;3.92;1.55;;;;;;;29.25;37.33;100531.16;5073131;28;20512;-66
2021/07/07 08:42:43;;;;;;;4.32;1.35;;;;;;;29.33;37.17;100538.13;5077470;28;20091;-66
2021/07/07 08:45:28;;;;;;;6.20;1.45;;;;;;;29.31;37.78;100537.78;5071932;28;20398;-65
2021/07/07 08:48:13;;;;;;;9.10;1.30;;;;;;;29.39;37.20;100536.34;5051516;28;20051;-65
2021/07/07 08:50:59;;;;;;;7.85;1.33;;;;;;;29.39;37.66;100533.53;5057212;28;20513;-65
2021/07/07 08:53:46;;;;;;;3.63;1.20;;;;;;;29.37;37.23;100538.00;5055197;28;20052;-65
2021/07/07 08:56:31;;;;;;;2.00;1.23;;;;;;;29.42;36.95;100538.22;5053446;28;20044;-64
2021/07/07 08:59:17;;;;;;;5.53;1.20;;;;;;;29.59;35.63;100536.88;5057071;28;20374;-65
2021/07/07 09:02:09;;;;;;;4.97;1.60;;;;;;;29.63;36.07;100545.16;5055069;28;20044;-64
2021/07/07 09:04:54;;;;;;;5.03;1.30;;;;;;;29.75;35.73;100536.75;5053167;28;20040;-64
2021/07/07 09:07:40;;;;;;;2.28;1.00;;;;;;;29.84;35.29;100546.50;5055615;28;20072;-65
2021/07/07 09:10:30;;;;;;;3.35;1.27;;;;;;;29.93;35.26;100538.97;5056299;28;20048;-66
2021/07/07 09:13:17;;;;;;;10.57;1.98;;;;;;;29.94;35.78;100545.38;5055681;28;20525;-66
2021/07/07 09:16:08;;;;;;;1.60;0.90;;;;;;;29.98;34.82;100546.03;5067377;28;20047;-65
2021/07/07 09:18:54;;;;;;;1.55;1.02;;;;;;;30.07;33.66;100537.72;5060308;28;20175;-66
2021/07/07 09:21:47;;;;;;;1.40;1.05;;;;;;;30.15;33.71;100547.47;5069771;28;20405;-65
2021/07/07 09:24:34;;;;;;;2.25;1.30;;;;;;;30.82;33.09;100541.47;5072394;28;20059;-67
2021/07/07 09:27:18;;;;;;;13.25;2.95;;;;;;;30.70;34.98;100542.31;5066521;28;20052;-67
2021/07/07 09:30:12;;;;;;;11.20;2.20;;;;;;;30.85;35.24;100540.53;5070422;28;20048;-68
2021/07/07 09:32:57;;;;;;;9.95;2.65;;;;;;;30.84;33.15;100538.97;5060858;28;20517;-68
2021/07/07 09:35:42;;;;;;;7.60;2.20;;;;;;;31.20;32.52;100552.47;5061966;28;20064;-68
2021/07/07 09:38:37;;;;;;;20.15;2.45;;;;;;;31.27;32.45;100550.16;5066387;28;20052;-66
2021/07/07 09:41:22;;;;;;;3.55;1.20;;;;;;;31.30;32.74;100549.22;5067592;28;20044;-66
2021/07/07 09:44:07;;;;;;;9.40;1.30;;;;;;;31.42;32.82;100545.53;5071003;28;20043;-68
2021/07/07 09:46:52;;;;;;;8.23;1.40;;;;;;;31.71;31.85;100547.22;5068954;28;20044;-66
2021/07/07 09:49:37;;;;;;;2.92;1.20;;;;;;;31.84;31.58;100548.69;5067218;28;20405;-68
2021/07/07 09:52:30;;;;;;;7.55;1.10;;;;;;;31.85;31.76;100549.44;5071354;28;20044;-67
2021/07/07 09:55:16;;;;;;;7.22;1.27;;;;;;;31.60;32.26;100546.88;5069184;28;20048;-68
2021/07/07 09:58:01;;;;;;;8.93;1.30;;;;;;;31.48;32.50;100544.94;5067199;28;20052;-67
2021/07/07 10:00:45;;;;;;;4.05;1.33;;;;;;;31.85;32.46;100550.22;5072349;28;20410;-67
2021/07/07 10:03:32;;;;;;;8.63;1.83;;;;;;;32.08;31.67;100539.63;5071166;28;20533;-67
2021/07/07 10:06:18;;;;;;;6.57;1.60;;;;;;;32.09;31.63;100544.81;5062113;28;20044;-67
2021/07/07 10:09:03;;;;;;;2.85;1.30;;;;;;;32.06;31.83;100550.56;5065998;28;20405;-67
2021/07/07 10:11:48;;;;;;;9.57;1.52;;;;;;;32.08;32.09;100548.09;5062735;28;20051;-67
2021/07/07 10:14:33;;;;;;;4.45;1.45;;;;;;;32.15;31.03;100550.63;5070000;28;20071;-67
2021/07/07 10:17:18;;;;;;;5.03;1.40;;;;;;;31.98;31.90;100547.28;5062937;28;20056;-69
2021/07/07 10:20:04;;;;;;;3.08;1.08;;;;;;;32.32;30.17;100554.69;5063195;28;20071;-67
2021/07/07 10:22:50;;;;;;;5.38;1.00;;;;;;;32.36;29.33;100546.09;5067003;28;20051;-66
2021/07/07 10:25:36;;;;;;;4.28;1.17;;;;;;;32.39;29.30;100560.03;5063255;28;20418;-68
2021/07/07 10:28:22;;;;;;;8.18;1.83;;;;;;;32.54;30.05;100551.72;5064783;28;20039;-68
2021/07/07 10:31:07;;;;;;;1.95;1.20;;;;;;;32.63;29.20;100551.72;5069712;28;20398;-68
2021/07/07 10:34:00;;;;;;;5.82;1.33;;;;;;;32.52;30.16;100557.03;5066978;28;20044;-68
2021/07/07 10:36:45;;;;;;;8.52;1.45;;;;;;;32.24;30.48;100553.44;5078757;28;20408;-68
2021/07/07 10:39:31;;;;;;;3.63;1.05;;;;;;;32.28;30.02;100553.28;5063833;28;20051;-68
2021/07/07 10:42:16;;;;;;;6.40;1.17;;;;;;;32.52;30.37;100559.84;5061474;28;20048;-67
2021/07/07 10:45:01;;;;;;;6.75;1.10;;;;;;;32.83;29.87;100562.50;5067265;28;20407;-67
2021/07/07 10:47:46;;;;;;;7.07;0.90;;;;;;;32.54;30.73;100563.78;5064982;28;20047;-68
2021/07/07 10:50:34;;;;;;;3.75;0.93;;;;;;;32.71;29.38;100558.63;5064607;28;20044;-68
2021/07/07 10:53:35;;;;;;;6.68;1.25;;;;;;;32.82;28.96;100553.28;5067718;28;21100;-67
2021/07/07 10:56:44;;;;;;;4.05;0.82;;;;;;;32.90;28.77;100554.53;5066708;28;20556;-66
2021/07/07 10:59:35;;;;;;;11.48;1.08;;;;;;;32.89;28.58;100538.88;5067880;28;20068;-69
2021/07/07 11:02:27;;;;;;;1.15;0.93;;;;;;;32.77;28.66;100544.66;5067391;28;20055;-67
2021/07/07 11:05:24;;;;;;;1.55;0.70;;;;;;;32.74;29.02;100540.78;5064475;28;20047;-69
2021/07/07 11:08:17;;;;;;;2.22;0.85;;;;;;;32.87;29.06;100543.41;5065152;28;20047;-67
2021/07/07 11:11:02;;;;;;;3.20;1.45;;;;;;;32.92;29.09;100537.91;5064866;28;20051;-69
2021/07/07 11:13:48;;;;;;;1.20;0.60;;;;;;;33.08;29.09;100543.19;5057033;28;20051;-68
2021/07/07 11:16:44;;;;;;;9.20;1.13;;;;;;;33.18;29.50;100538.34;5063587;28;20509;-68
2021/07/07 11:19:49;;;;;;;2.33;0.45;;;;;;;33.31;29.02;100538.13;5064656;28;20040;-68
2021/07/07 11:22:35;;;;;;;3.15;1.00;;;;;;;33.17;29.47;100539.59;5066449;28;20063;-68
2021/07/07 11:25:19;;;;;;;3.08;1.10;;;;;;;33.21;28.72;100534.56;5057075;28;20051;-68
2021/07/07 11:28:11;;;;;;;4.18;1.02;;;;;;;33.30;29.24;100545.03;5062142;28;20059;-68
2021/07/07 11:30:56;;;;;;;1.80;0.85;;;;;;;33.32;29.25;100534.81;5062373;28;20051;-68
2021/07/07 11:33:40;;;;;;;5.55;0.95;;;;;;;33.28;29.18;100533.44;5064517;28;20051;-68
2021/07/07 11:36:26;;;;;;;1.80;0.90;;;;;;;33.35;29.26;100530.28;5061638;28;20047;-68
2021/07/07 11:39:11;;;;;;;3.47;0.90;;;;;;;33.53;29.81;100538.66;5063964;28;20055;-67
2021/07/07 11:42:04;;;;;;;2.03;0.80;;;;;;;33.28;29.75;100531.41;5070103;28;20410;-67
2021/07/07 11:44:49;;;;;;;6.07;1.20;;;;;;;33.27;29.72;100520.63;5063685;28;20043;-67
2021/07/07 11:47:36;;;;;;;10.07;1.20;;;;;;;33.39;30.70;100537.31;5066839;28;20063;-67
2021/07/07 11:50:21;;;;;;;4.13;1.25;;;;;;;33.30;30.54;100537.34;5065096;28;20071;-68
2021/07/07 11:53:08;;;;;;;12.57;1.27;;;;;;;33.39;31.02;100539.34;5063706;28;20063;-68
2021/07/07 11:55:57;;;;;;;6.00;1.30;;;;;;;33.52;31.17;100534.28;5067086;28;20055;-68
2021/07/07 11:58:45;;;;;;;3.25;1.42;;;;;;;33.65;30.88;100540.47;5061782;28;20261;-68
2021/07/07 12:01:32;;;;;;;4.82;1.13;;;;;;;33.58;29.98;100535.16;5067876;28;20063;-68
2021/07/07 12:04:26;;;;;;;11.05;1.90;;;;;;;33.72;30.95;100540.16;5062770;28;20052;-68
2021/07/07 12:07:11;;;;;;;2.92;0.80;;;;;;;33.67;30.63;100542.81;5060054;28;20051;-68
2021/07/07 12:09:55;;;;;;;4.07;0.93;;;;;;;33.86;30.16;100535.84;5064573;28;20044;-68
2021/07/07 12:12:40;;;;;;;9.95;1.10;;;;;;;33.67;30.73;100532.31;5065464;28;20044;-71
2021/07/07 12:15:25;;;;;;;5.75;0.95;;;;;;;33.71;29.13;100532.16;5060846;28;20040;-69
2021/07/07 12:18:30;;;;;;;2.13;0.88;;;;;;;33.66;29.22;100529.97;5058316;28;20418;-72
2021/07/07 12:21:24;;;;;;;4.00;1.05;;;;;;;33.76;30.53;100539.97;5059553;28;20545;-69
2021/07/07 12:24:32;;;;;;;;;;;;;;;33.83;29.28;100537.56;5061800;28;20401;-68
2021/07/07 12:27:21;;;;;;;1.52;1.02;;;;;;;33.91;28.19;100541.59;5062108;28;20305;-70
2021/07/07 12:30:06;;;;;;;3.67;1.00;;;;;;;33.64;29.13;100521.19;5063459;28;20043;-69
2021/07/07 12:32:53;;;;;;;2.15;1.20;;;;;;;33.77;29.98;100533.84;5065392;28;20052;-72
2021/07/07 12:35:38;;;;;;;29.55;2.00;;;;;;;33.80;27.71;100538.53;5061451;28;20044;-70
2021/07/07 12:38:23;;;;;;;3.83;2.08;;;;;;;33.64;27.77;100538.91;5059813;28;20056;-69
2021/07/07 12:41:09;;;;;;;7.25;1.17;;;;;;;33.25;29.57;100531.59;5066946;28;20062;-70
2021/07/07 12:44:16;;;;;;;1.75;0.80;;;;;;;32.89;30.07;100536.06;5067399;28;20043;-71
2021/07/07 12:47:08;;;;;;;1.95;1.02;;;;;;;33.12;30.17;100539.44;5058675;28;20043;-71
2021/07/07 12:49:54;;;;;;;5.05;0.80;;;;;;;32.94;29.61;100543.88;5061733;28;20040;-71
2021/07/07 12:52:43;;;;;;;1.80;1.00;;;;;;;32.89;30.10;100538.88;5055344;28;20044;-71